createdAt,value
2022-09-07T00:01:48.473Z,38.43
2022-09-07T00:08:33.793Z,37.70
2022-09-07T00:15:22.628Z,38.52
2022-09-07T00:22:08.468Z,39.34
2022-09-07T00:28:55.480Z,39.44
2022-09-07T00:35:46.486Z,39.20
2022-09-07T00:42:32.027Z,39.79
2022-09-07T00:49:21.114Z,39.01
2022-09-07T00:56:10.422Z,39.96
2022-09-07T01:02:59.912Z,40.57
2022-09-07T01:09:47.907Z,41.24
2022-09-07T01:16:53.923Z,41.82
2022-09-07T01:24:12.145Z,40.39
2022-09-07T01:31:07.630Z,42.32
2022-09-07T01:38:02.927Z,42.60
2022-09-07T01:44:53.011Z,43.24
2022-09-07T01:51:47.058Z,43.97
2022-09-07T01:58:38.088Z,44.08
2022-09-07T02:05:28.332Z,44.28
2022-09-07T02:12:23.139Z,44.88
2022-09-07T02:19:14.166Z,45.04
2022-09-07T02:26:05.401Z,46.03
2022-09-07T02:32:53.876Z,46.27
2022-09-07T02:39:39.828Z,45.94
2022-09-07T03:00:21.144Z,47.26
2022-09-07T03:07:13.507Z,47.94
2022-09-07T03:14:17.650Z,48.03
2022-09-07T03:21:05.831Z,48.52
2022-09-07T03:27:51.439Z,48.07
2022-09-07T03:34:37.000Z,48.08
2022-09-07T03:41:25.193Z,48.49
2022-09-07T03:48:10.785Z,48.27
2022-09-07T03:54:56.403Z,48.22
2022-09-07T04:01:44.655Z,48.72
2022-09-07T04:08:31.463Z,49.22
2022-09-07T04:15:17.126Z,49.07
2022-09-07T04:22:05.308Z,49.03
2022-09-07T04:28:51.692Z,49.17
2022-09-07T04:35:39.879Z,49.00
2022-09-07T04:42:28.091Z,49.22
2022-09-07T04:49:15.690Z,48.99
2022-09-07T04:56:01.980Z,49.04
2022-09-07T05:02:50.246Z,48.82
2022-09-07T05:09:36.731Z,48.62
2022-09-07T05:16:24.633Z,48.66
2022-09-07T05:23:12.964Z,49.09
2022-09-07T05:37:04.837Z,48.96
2022-09-07T05:50:59.314Z,48.83
2022-09-07T05:57:44.894Z,48.72
2022-09-07T06:04:33.124Z,49.53
2022-09-07T06:11:20.840Z,49.36
2022-09-07T06:18:06.512Z,49.51
2022-09-07T06:24:54.491Z,48.58
2022-09-07T06:38:47.076Z,50.55
2022-09-07T06:45:35.290Z,50.61
2022-09-07T06:52:20.876Z,51.29
2022-09-07T06:59:06.450Z,51.56
2022-09-07T07:05:59.664Z,51.35
2022-09-07T07:19:29.640Z,53.14
2022-09-07T07:26:20.383Z,53.49
2022-09-07T07:33:08.132Z,53.85
2022-09-07T07:47:02.524Z,54.49
2022-09-07T07:53:48.439Z,54.65
2022-09-07T08:00:53.020Z,54.52
2022-09-07T08:07:41.855Z,54.36
2022-09-07T08:14:27.564Z,54.32
2022-09-07T08:21:15.287Z,53.02
2022-09-07T08:28:04.083Z,53.66
2022-09-07T08:34:49.437Z,53.98
2022-09-07T08:42:03.749Z,54.24
2022-09-07T08:48:52.780Z,53.53
2022-09-07T08:55:43.465Z,53.27
2022-09-07T09:02:32.694Z,52.91
2022-09-07T09:09:34.558Z,52.31
2022-09-07T09:16:27.360Z,51.47
2022-09-07T09:23:17.208Z,50.67
2022-09-07T09:30:05.223Z,50.78
2022-09-07T09:36:53.130Z,50.31
2022-09-07T09:43:47.417Z,49.62
2022-09-07T10:05:02.991Z,48.26
2022-09-07T10:12:10.840Z,48.02
2022-09-07T10:18:59.864Z,47.78
2022-09-07T10:25:47.584Z,47.16
2022-09-07T10:32:53.235Z,45.70
2022-09-07T10:39:42.591Z,45.52
2022-09-07T10:46:58.532Z,45.00
2022-09-07T11:01:15.543Z,44.02
2022-09-07T11:08:20.159Z,43.88
2022-09-07T11:15:20.545Z,43.40
2022-09-07T11:22:20.416Z,43.50
2022-09-07T11:29:31.117Z,42.61
2022-09-07T11:36:21.953Z,42.65
2022-09-07T11:43:15.216Z,42.31
2022-09-07T11:50:00.802Z,42.22
2022-09-07T11:56:56.669Z,41.29
2022-09-07T12:04:24.715Z,42.02
2022-09-07T12:11:28.742Z,41.10
2022-09-07T12:18:34.927Z,40.95
2022-09-07T12:25:22.156Z,40.26
2022-09-07T12:32:53.638Z,39.65
2022-09-07T12:39:28.583Z,38.70
2022-09-07T12:46:23.802Z,37.65
2022-09-07T12:53:31.449Z,37.78
2022-09-07T13:00:51.347Z,37.14
2022-09-07T13:08:09.312Z,36.73
2022-09-07T13:14:58.360Z,36.25
2022-09-07T13:21:50.157Z,35.50
2022-09-07T13:28:56.016Z,34.33
2022-09-07T13:35:42.123Z,34.00
2022-09-07T13:42:35.558Z,33.96
2022-09-07T13:49:41.995Z,33.57
2022-09-07T13:56:42.919Z,32.65
2022-09-07T14:03:40.683Z,32.56
2022-09-07T14:10:29.311Z,31.63
2022-09-07T14:17:19.017Z,31.71
2022-09-07T14:24:10.564Z,31.25
2022-09-07T14:30:56.451Z,31.42
2022-09-07T14:37:43.120Z,31.06
2022-09-07T14:44:40.472Z,30.85
2022-09-07T14:51:35.480Z,30.81
2022-09-07T14:58:27.907Z,30.78
2022-09-07T15:05:29.187Z,30.91
2022-09-07T15:12:32.992Z,30.71
2022-09-07T15:19:34.296Z,30.85
2022-09-07T15:33:28.569Z,31.00
2022-09-07T15:40:20.698Z,31.28
2022-09-07T15:54:14.927Z,30.61
2022-09-07T16:08:27.686Z,30.88
2022-09-07T16:15:14.276Z,31.04
2022-09-07T16:21:59.700Z,31.19
2022-09-07T16:28:50.769Z,31.43
2022-09-07T16:35:36.120Z,31.41
2022-09-07T16:42:22.663Z,31.88
2022-09-07T16:49:11.056Z,31.79
2022-09-07T16:55:58.636Z,32.38
2022-09-07T17:02:44.469Z,32.74
2022-09-07T17:09:32.807Z,32.50
2022-09-07T17:16:22.351Z,32.54
2022-09-07T17:23:07.829Z,32.90
2022-09-07T17:29:57.027Z,32.77
2022-09-07T17:36:42.811Z,32.80
2022-09-07T17:43:45.694Z,33.25
2022-09-07T17:50:33.884Z,33.32
2022-09-07T17:57:19.621Z,33.43
2022-09-07T18:04:05.671Z,33.25
2022-09-07T18:18:00.183Z,33.59
2022-09-07T18:24:46.056Z,34.13
2022-09-07T18:31:34.159Z,34.18
2022-09-07T18:38:19.512Z,34.15
2022-09-07T18:59:18.686Z,35.06
2022-09-07T19:06:07.785Z,35.35
2022-09-07T19:12:55.812Z,35.55
2022-09-07T19:19:42.196Z,35.45
2022-09-07T19:26:29.681Z,35.81
2022-09-07T19:33:17.687Z,36.20
2022-09-07T19:40:03.393Z,35.81
2022-09-07T19:46:48.904Z,36.19
2022-09-07T19:53:40.362Z,35.88
2022-09-07T20:00:26.120Z,36.20
2022-09-07T20:07:11.541Z,36.33
2022-09-07T20:13:59.803Z,36.85
2022-09-07T20:20:45.185Z,37.04
2022-09-07T20:27:30.651Z,36.80
2022-09-07T20:34:18.811Z,36.84
2022-09-07T20:41:04.853Z,37.23
2022-09-07T20:47:50.245Z,36.79
2022-09-07T20:54:38.855Z,37.67
2022-09-07T21:01:24.616Z,37.28
2022-09-07T21:08:10.129Z,37.56
2022-09-07T21:14:57.859Z,36.99
2022-09-07T21:21:46.128Z,37.73
2022-09-07T21:28:32.213Z,37.56
2022-09-07T21:35:20.624Z,37.87
2022-09-07T21:42:06.232Z,38.47
2022-09-07T21:48:51.802Z,38.82
2022-09-07T21:55:39.767Z,38.34
2022-09-07T22:02:25.207Z,38.55
2022-09-07T22:09:10.872Z,37.96
2022-09-07T22:15:59.038Z,38.81
2022-09-07T22:22:46.313Z,39.26
2022-09-07T22:29:32.049Z,38.96
2022-09-07T22:36:23.056Z,39.41
2022-09-07T22:43:08.401Z,39.59
2022-09-07T22:49:53.849Z,40.02
2022-09-07T22:56:42.168Z,39.88
2022-09-07T23:03:27.950Z,39.95
2022-09-07T23:10:13.639Z,40.89
2022-09-07T23:17:01.523Z,39.71
2022-09-07T23:23:47.021Z,40.82
2022-09-07T23:30:32.212Z,40.04
2022-09-07T23:37:20.381Z,41.98
2022-09-07T23:44:06.621Z,42.42
2022-09-07T23:50:53.051Z,42.94
2022-09-07T23:57:41.683Z,43.32
